Weather observations for the past three days for
Mena, Mena Intermountain Municipal Airport
Imperial (Metric)
Date Time (cdt) Wind (mph) Vis. (mi.) Weather Sky Cond. Temperature (ºF) Relative Humidity Wind Chill (°F) Heat Index (°F) Pressure Precipitation (in)
Air Dwpt 6 hour altimeter (in) sea level (mb) 1 hr 3 hr 6 hr
Max. Min.
04 20:35 Calm 10.00 Fair CLR 70.3 55 59% 29.73 0.0
04 20:15 Calm 10.00 Fair CLR 70.2 55 59% 29.73 0.0
04 19:55 Vrbl 6 10.00 Fair CLR 70.9 55.4 58% 29.73 0.0
04 19:35 Vrbl 5 9.00 Fair CLR 71.6 55.4 57% 29.73 0.0
04 19:15 Vrbl 3 10.00 Fair CLR 73 55.8 55% 29.73 0.0
04 18:55 Vrbl 3 10.00 Fair CLR 73.6 55.6 77.4 73.6 53% 29.74 0.0
04 18:35 Vrbl 5 10.00 Fair CLR 73.9 55 52% 29.74 0.0
04 18:15 Vrbl 6 10.00 Fair CLR 73.9 55 52% 29.74 0.0
04 17:55 Vrbl 3 10.00 Fair CLR 74.3 54.7 51% 29.74 0.0
04 17:35 Vrbl 6 10.00 Fair CLR 74.7 54.9 50% 29.75 0.0
04 17:15 SW 8 10.00 Fair CLR 75.7 54.7 48% 78 29.75 0.0
04 16:55 Vrbl 3 10.00 Fair CLR 76.3 55 48% 78 29.76 0.0
04 16:35 Vrbl 7 10.00 Fair CLR 77 55.8 48% 79 29.77 0.0
04 16:15 Vrbl 5 10.00 Fair CLR 76.8 55.6 48% 78 29.78 0.0
04 15:55 Vrbl 5 10.00 Fair CLR 76.8 55.2 47% 78 29.79 0.0
04 15:35 Vrbl 3 10.00 Fair CLR 75.7 54.3 47% 78 29.8 0.0
04 15:15 Vrbl 6 10.00 A Few Clouds FEW340 76.5 54.3 46% 78 29.81 0.0
04 14:55 SW 9 10.00 A Few Clouds FEW360 75.7 53.1 45% 78 29.83 0.0
04 14:35 S 7 G 16 10.00 A Few Clouds FEW360 75.7 53.6 46% 78 29.83 0.0
04 14:15 Vrbl 6 10.00 A Few Clouds FEW055 76.5 53.8 45% 78 29.85 0.0
04 13:55 SW 8 10.00 Fair CLR 75.4 52.5 45% 78 29.85 0.0
04 13:35 SW 8 G 18 10.00 Fair CLR 75.4 53.1 46% 78 29.86 0.0
04 13:15 SW 9 10.00 Fair CLR 74.5 52.7 47% 29.87 0.0
04 12:55 W 9 10.00 Fair CLR 74.1 53.1 74.1 60.8 48% 29.88 0.0
04 12:35 SW 12 G 21 10.00 Fair CLR 73.6 52.5 48% 29.89 0.0
04 12:15 SW 12 G 18 10.00 Fair CLR 73 52.2 48% 29.89 0.0
04 11:55 SW 8 10.00 Fair CLR 72.5 52.3 49% 29.89 0.0
04 11:35 SW 9 G 22 10.00 Fair CLR 72 52.7 51% 29.9 0.0
04 11:15 W 8 G 21 10.00 Fair CLR 71.2 52.3 51% 29.9 0.0
04 10:55 SW 9 G 17 10.00 Fair CLR 70.5 52 52% 29.9 0.0
04 10:35 SW 13 G 18 10.00 Fair CLR 69.8 51.6 53% 29.91 0.0
04 10:15 W 12 10.00 Fair CLR 69.8 52 53% 29.91 0.0
04 09:55 Vrbl 7 10.00 Fair CLR 68.5 52.3 56% 29.92 0.0
04 09:35 W 12 G 18 10.00 Fair CLR 67.3 50.9 56% 29.92 0.0
04 09:15 W 9 10.00 Fair CLR 66.4 51.6 59% 29.93 0.0
04 08:55 W 9 G 18 10.00 Fair CLR 65.3 51.8 62% 29.93 0.0
04 08:35 W 8 10.00 Fair CLR 64.4 51.4 63% 29.92 0.0
04 08:15 Vrbl 6 10.00 Fair CLR 63.3 50.9 64% 29.92 0.0
04 07:55 Vrbl 7 10.00 Fair CLR 62.4 50 64% 29.92 0.0
04 07:35 W 12 G 18 10.00 Fair CLR 62.2 48.9 62% 29.92 0.0
04 07:15 W 6 10.00 Fair CLR 61.7 47.8 61% 29.92 0.0
04 06:55 Vrbl 5 10.00 Fair CLR 60.3 47.5 68.4 56.5 63% 29.91 0.0
04 06:35 Vrbl 5 10.00 Fair CLR 60.6 47.1 61% 29.91 0.0
04 06:15 W 6 10.00 Fair CLR 61.2 47.1 60% 29.9 0.0
04 05:55 SW 5 10.00 Fair CLR 60.8 47.1 61% 29.9 0.0
04 05:35 SW 5 10.00 Fair CLR 60.6 46.9 61% 29.9 0.0
04 05:15 W 5 10.00 Fair CLR 61.5 46.8 59% 29.91 0.0
04 04:55 W 3 10.00 Fair CLR 60.6 47.1 61% 29.91 0.0
04 04:35 W 3 10.00 Fair CLR 58.5 47.7 68% 29.92 0.0
04 04:15 W 5 10.00 Fair CLR 61.9 46.8 58% 29.92 0.0
04 03:55 W 5 10.00 Fair CLR 61.2 46.4 59% 29.92 0.0
04 03:35 W 5 10.00 Fair CLR 59.9 46 60% 29.92 0.0
04 03:15 W 3 10.00 Fair CLR 60.4 46.2 60% 29.92 0.0
04 02:55 W 6 10.00 Fair CLR 66 44.4 46% 29.93 0.0
04 02:35 W 9 10.00 Fair CLR 67.3 43.5 42% 29.93 0.0
04 02:15 W 7 10.00 Fair CLR 67.5 43.7 42% 29.94 0.0
04 01:55 Vrbl 6 10.00 Fair CLR 68 43.7 42% 29.95 0.0
04 01:35 SW 6 10.00 Fair CLR 68.2 43.7 41% 29.95 0.0
04 01:15 Vrbl 7 10.00 Fair CLR 68 44.4 43% 29.96 0.0
04 00:55 W 5 10.00 Fair CLR 67.8 45.3 75.6 67.8 45% 29.96 0.0
04 00:35 Vrbl 7 10.00 Fair CLR 68 45.9 45% 29.96 0.0
04 00:15 Vrbl 5 10.00 Fair CLR 68.2 46 45% 29.96 0.0
03 23:55 SW 7 10.00 Fair CLR 68.7 46.4 45% 29.97 0.0
03 23:35 Vrbl 6 10.00 Fair CLR 68.5 46.8 46% 29.97 0.0
03 23:15 Vrbl 7 10.00 Fair CLR 68.7 47.3 47% 29.97 0.0
03 22:55 Vrbl 6 10.00 Fair CLR 69.3 48 47% 29.97 0.0
03 22:35 Vrbl 5 10.00 Fair CLR 69.3 48.7 48% 29.97 0.0
03 22:15 Vrbl 5 10.00 Fair CLR 69.8 48.9 48% 29.97 0.0
03 21:55 Vrbl 6 10.00 Fair CLR 70.2 49.8 49% 29.97 0.0
03 21:35 Vrbl 6 10.00 Fair CLR 69.8 50.4 50% 29.97 0.0
03 21:15 Vrbl 6 10.00 Fair CLR 70 50.2 50% 29.97 0.0
03 20:55 Calm 10.00 Fair CLR 69.6 50.5 51% 29.96 0.0
03 20:35 Calm 10.00 Fair CLR 69.8 50 50% 29.96 0.0
03 20:15 SW 3 10.00 Fair CLR 71.8 48.9 44% 29.95 0.0
03 19:55 Vrbl 3 10.00 Fair CLR 72.5 49.1 44% 29.95 0.0
03 19:35 Vrbl 3 10.00 Fair CLR 73.8 48.9 42% 29.95 0.0
03 19:15 SW 5 10.00 Fair CLR 75 48.9 40% 77 29.95 0.0
03 18:55 SW 7 10.00 Fair CLR 75.9 50 79 74.3 40% 78 29.95 0.0
03 18:35 Vrbl 5 10.00 Fair CLR 76.3 49.6 39% 78 29.96 0.0
03 18:15 Vrbl 7 10.00 Fair CLR 77.4 49.5 38% 78 29.96 0.0
03 17:55 Vrbl 5 10.00 Fair CLR 77.7 50.7 39% 79 29.96 0.0
03 17:35 SW 7 10.00 Fair CLR 78.1 51.3 39% 79 29.96 0.0
03 17:15 Vrbl 6 10.00 A Few Clouds FEW070 78.1 52.2 41% 79 29.97 0.0
03 16:55 SW 7 10.00 A Few Clouds FEW070 78.8 51.8 39% 79 29.97 0.0
03 16:35 W 8 10.00 Fair CLR 79 51.1 38% 79 29.97 0.0
03 16:15 Vrbl 5 10.00 A Few Clouds FEW065 77.7 52 41% 79 29.98 0.0
03 15:55 SW 8 10.00 Fair CLR 77.5 52 41% 79 30 0.0
03 15:35 W 10 G 17 10.00 Fair CLR 78.1 52.9 42% 79 30.01 0.0
03 15:15 Vrbl 7 10.00 Fair CLR 77.5 51.3 40% 78 30.02 0.0
03 14:55 SW 6 G 18 10.00 Fair CLR 76.8 52.2 42% 78 30.03 0.0
03 14:35 W 7 10.00 Fair CLR 77.4 52.7 42% 79 30.03 0.0
03 13:55 W 12 G 17 10.00 A Few Clouds FEW350 76.1 50.4 41% 78 30.06 0.0
03 13:35 SW 8 10.00 Fair CLR 75.7 50.5 41% 78 30.07 0.0
03 13:15 SW 8 10.00 Fair CLR 74.5 49.8 42% 30.07 0.0
03 12:55 SW 10 10.00 A Few Clouds FEW340 73.6 49.1 73.9 41.5 42% 30.09 0.0
03 12:35 W 12 G 16 10.00 Fair CLR 72.9 48.6 42% 30.1 0.0
03 12:15 Vrbl 6 7.00 Fair CLR 72 47.8 42% 30.1 0.0
03 11:55 W 6 3.00 Fair with Haze CLR 71.4 46.9 42% 30.11 0.0
03 11:35 W 7 7.00 Fair CLR 70.3 46.4 43% 30.12 0.0
03 11:15 SW 9 8.00 Fair CLR 69.3 44.6 41% 30.13 0.0
03 10:55 SW 8 8.00 Fair CLR 68.7 43.7 41% 30.13 0.0
03 10:35 Vrbl 6 4.00 Fair with Haze CLR 67.6 42.3 40% 30.14 0.0
03 10:15 SW 8 4.00 Fair with Haze CLR 66.7 41.2 39% 30.14 0.0
03 09:55 Calm 3.00 Fair with Haze CLR 64 46.2 53% 30.14 0.0
03 09:35 NE 5 3.00 Fair with Haze CLR 61.2 47.7 61% 30.15 0.0
03 09:15 Calm 3.00 Fair with Haze CLR 58.3 45.1 62% 30.15 0.0
03 08:55 Calm 3.00 Fair with Haze CLR 54.9 46.6 74% 30.15 0.0
03 08:35 Calm 3.00 Fair with Haze CLR 52.3 45.5 78% 30.15 0.0
03 08:15 Calm 3.00 Fair with Haze CLR 50.2 43 76% 30.15 0.0
03 07:55 Calm 3.00 Fog/Mist CLR 47.3 44.2 89% 30.16 0.0
03 07:35 Calm 3.00 Fog/Mist CLR 45.9 43.7 92% 30.16 0.0
03 07:15 Calm 1.75 Fog/Mist CLR 43.2 42.8 99% 30.15 0.0
03 06:55 Calm 1.75 Fog/Mist CLR 41.4 41 43.5 39.7 99% 30.14 0.0
03 06:35 Calm 1.75 Fog/Mist FEW065 40.5 40.5 100% 30.14 0.0
03 06:15 Calm 1.75 Fog/Mist FEW070 40.8 40.8 100% 30.13 0.0
03 05:55 Calm 2.50 Fog/Mist FEW070 40.6 40.6 100% 30.12 0.0
03 05:35 Calm 3.00 Fog/Mist CLR 40.6 40.5 99% 30.13 0.0
03 05:15 Calm 2.50 Fog/Mist CLR 41.4 40.5 97% 30.13 0.0
03 04:55 W 3 3.00 Fog/Mist CLR 40.8 40.5 99% 30.13 0.0
03 04:35 Calm 2.50 Fog/Mist CLR 39.9 39.9 100% 30.13 0.0
03 04:15 Calm 2.50 Fog/Mist CLR 41.2 41.2 100% 30.13 0.0
03 03:55 Calm 2.50 Fog/Mist CLR 41 41 100% 30.13 0.0
03 03:35 Calm 3.00 Fog/Mist CLR 41.5 41.5 100% 30.13 0.0
03 03:15 Calm 3.00 Fog/Mist CLR 41.2 41 99% 30.13 0.0
03 02:55 Calm 3.00 Fog/Mist CLR 41.7 41.4 99% 30.13 0.0
03 02:35 Calm 2.50 Fog/Mist CLR 41.2 41 99% 30.13 0.0
03 02:15 Calm 3.00 Fog/Mist CLR 42.1 41.9 99% 30.13 0.0
03 01:55 Calm 3.00 Fog/Mist CLR 42.3 41.5 97% 30.13 0.0
03 01:35 Calm 3.00 Fog/Mist CLR 42.4 41.7 97% 30.13 0.0
03 01:15 Calm 3.00 Fog/Mist CLR 43.5 41.4 92% 30.13 0.0
03 00:55 Calm 3.00 Fog/Mist CLR 43.9 41.9 67.3 43 93% 30.13 0.0
03 00:35 Calm 3.00 Fog/Mist CLR 43.9 41.9 93% 30.13 0.0
03 00:15 SW 6 3.00 Fog/Mist CLR 43.7 42.4 95% 41 30.13 0.0
02 23:55 Calm 3.00 Fog/Mist CLR 44.6 44.1 98% 30.13 0.0
02 23:35 Calm 3.00 Fog/Mist CLR 44.4 43.7 97% 30.13 0.0
02 23:15 Calm 3.00 Fog/Mist CLR 45.7 44.2 95% 30.12 0.0
02 22:55 Calm 3.00 Fog/Mist CLR 46.2 44.6 94% 30.12 0.0
02 22:35 Calm 3.00 Fog/Mist CLR 46.8 44.2 91% 30.12 0.0
02 22:15 Calm 3.00 Fog/Mist CLR 48.4 45.3 89% 30.11 0.0
02 21:55 Calm 3.00 Fair with Haze CLR 49.3 44.8 85% 30.1 0.0
02 21:35 Calm 3.00 Fair with Haze CLR 50 43.9 80% 30.1 0.0
02 21:15 Calm 3.00 Fair with Haze CLR 50 44.1 80% 30.09 0.0
02 20:55 Calm 2.50 Fair with Haze CLR 52.9 43.9 72% 30.08 0.0
02 20:35 Calm 1.50 Fair with Haze CLR 54.1 43.5 68% 30.08 0.0
02 20:15 Calm 1.50 Fair with Haze CLR 60.4 41.7 50% 30.07 0.0
02 19:55 N 3 1.25 Fair with Haze CLR 63.5 41.2 44% 30.07 0.0
02 19:35 N 3 1.75 Fair with Haze CLR 64.6 41.9 44% 30.07 0.0
02 19:15 NW 6 3.00 Fair with Haze CLR 66.4 41 40% 30.07 0.0
02 18:55 NW 8 5.00 Fair with Haze CLR 67.6 40.8 71.4 67.1 38% 30.07 0.0
02 18:35 NW 8 6.00 Fair with Haze CLR 68.4 41 37% 30.07 0.0
02 18:15 Vrbl 6 4.00 Fair with Haze CLR 68.9 40.8 36% 30.07 0.0
02 17:55 NW 9 4.00 Fair with Haze CLR 68.2 38.3 34% 30.07 0.0
02 17:35 NW 9 4.00 Fair with Haze CLR 68.5 41 37% 30.07 0.0
02 17:15 NW 10 7.00 A Few Clouds FEW070 68.4 40.8 37% 30.07 0.0
02 16:55 NW 9 5.00 A Few Clouds with Haze FEW070 70.3 41.7 36% 30.07 0.0
02 16:35 NW 10 9.00 Partly Cloudy SCT070 70.9 43.3 37% 30.07 0.0
02 16:15 NW 13 G 18 8.00 Partly Cloudy SCT075 70.9 40.6 33% 30.07 0.0
02 15:55 NW 13 G 21 5.00 A Few Clouds with Haze FEW070 71.2 41.4 34% 30.08 0.0
02 15:35 NW 8 5.00 A Few Clouds with Haze FEW075 69.6 42.1 37% 30.09 0.0
02 15:15 NW 14 G 17 5.00 A Few Clouds with Haze FEW070 69.6 38.8 33% 30.1 0.0
02 14:55 NW 12 5.00 Fair with Haze CLR 69.3 38.8 33% 30.1 0.0
02 14:35 W 16 G 24 5.00 A Few Clouds with Haze FEW075 69.8 41.2 35% 30.1 0.0
02 14:15 W 13 7.00 A Few Clouds FEW070 68.7 41.4 37% 30.1 0.0
02 13:55 NW 8 G 18 6.00 Fair with Haze CLR 68.9 40.5 36% 30.11 0.0
02 13:35 W 9 6.00 A Few Clouds with Haze FEW280 69.4 40.5 35% 30.12 0.0
02 13:15 W 10 G 18 6.00 A Few Clouds with Haze FEW075 68.7 40.6 36% 30.12 0.0
02 12:55 W 10 6.00 A Few Clouds with Haze FEW340 67.8 39.9 68.2 39.6 36% 30.13 0.0
02 12:35 NW 6 4.00 Fair with Haze CLR 67.8 40.8 37% 30.13 0.0
02 12:15 N 9 7.00 Fair CLR 66.7 40.5 38% 30.14 0.0
02 11:55 Calm 3.00 Fair with Haze CLR 65.3 38.8 38% 30.14 0.0
02 11:35 NE 8 3.00 Fair with Haze CLR 66.4 40.8 39% 30.14 0.0
02 11:15 Vrbl 7 3.00 Fair with Haze CLR 65.3 39.6 39% 30.14 0.0
02 10:55 Vrbl 5 4.00 Fair with Haze CLR 64.4 38.3 38% 30.14 0.0
02 10:35 Vrbl 7 4.00 Fair with Haze CLR 63.9 36.7 37% 30.14 0.0
02 10:15 Vrbl 7 4.00 Fair with Haze CLR 63.9 37 37% 30.14 0.0
02 09:55 Vrbl 7 3.00 A Few Clouds with Haze FEW100 62.2 41.9 47% 30.14 0.0
02 09:35 NW 3 3.00 Partly Cloudy with Haze SCT100 61.2 41.4 48% 30.14 0.0
02 09:15 NW 5 3.00 A Few Clouds with Haze FEW110 59.7 40.6 49% 30.14 0.0
02 08:55 W 6 4.00 Fair with Haze CLR 57.9 40.5 52% 30.14 0.0
02 08:35 W 5 4.00 Fair with Haze CLR 55.9 44.2 65% 30.13 0.0
02 08:15 Calm 4.00 Fair with Haze CLR 52.2 45.1 77% 30.13 0.0
02 07:55 Calm 4.00 Fog/Mist CLR 46.9 43.7 89% 30.12 0.0
02 07:35 Calm 6.00 Fog/Mist CLR 44.4 42.1 92% 30.12 0.0
02 07:15 Calm 1.50 Fog/Mist CLR 41.9 41 97% 30.1 0.0
02 06:55 Calm 1.25 Fog/Mist CLR 39.7 39.7 48.4 38.7 100% 30.09 0.0
02 06:35 Calm 1.00 Fog/Mist CLR 39.4 39.4 100% 30.08 0.0
02 06:15 Calm 1.00 Fog/Mist CLR 39.6 39.6 100% 30.09 0.0
02 05:55 Calm 2.50 Fog/Mist CLR 40.5 40.5 100% 30.08 0.0
02 05:35 Calm 3.00 Fog/Mist CLR 38.8 38.8 100% 30.08 0.0
02 05:15 Calm 2.50 Fog/Mist CLR 40.6 40.6 100% 30.07 0.0
02 04:55 Calm 2.50 Fog/Mist CLR 41.2 41 99% 30.06 0.0
02 04:35 Calm 2.50 Fog/Mist CLR 42.3 41.5 97% 30.06 0.0
02 04:15 Calm 2.50 Fog/Mist CLR 41.9 41.7 99% 30.06 0.0
02 03:55 Calm 3.00 Fog/Mist CLR 44.2 42.3 93% 30.06 0.0
02 03:35 W 3 5.00 Fog/Mist CLR 43.3 42.3 96% 30.06 0.0
02 03:15 Calm 4.00 Fog/Mist CLR 44.4 42.8 94% 30.05 0.0
02 02:55 Calm 4.00 Fog/Mist SCT190 45.5 42.8 90% 30.05 0.0
02 02:35 Calm 4.00 Fog/Mist BKN190 45.1 43.9 95% 30.06 0.0
02 02:15 Calm 4.00 Fog/Mist CLR 45 43.7 95% 30.06 0.0
02 01:55 Calm 4.00 Fog/Mist CLR 47.1 43.7 88% 30.06 0.0
02 01:35 Calm 4.00 Fog/Mist CLR 46.2 44.1 92% 30.06 0.0
02 01:15 Calm 4.00 Fog/Mist CLR 47.1 43.7 88% 30.06 0.0
02 00:55 Calm 4.00 Fog/Mist CLR 48 44.8 64.8 47.8 89% 30.06 0.0
02 00:35 Calm 4.00 Fair with Haze CLR 50 45.7 85% 30.06 0.0
02 00:15 Calm 4.00 Fair with Haze CLR 50.7 46 84% 30.06 0.0
01 23:55 Calm 8.00 Fair CLR 50.5 46 85% 30.06 0.0
01 23:35 SE 3 8.00 Fair CLR 52.5 45.9 78% 30.06 0.0
01 23:15 Calm 8.00 Fair CLR 53.8 46.2 76% 30.06 0.0
01 22:55 Calm 9.00 Fair CLR 57 41.2 56% 30.05 0.0
01 22:35 Calm 9.00 Fair CLR 57.4 40.5 53% 30.05 0.0
01 22:15 Calm 9.00 A Few Clouds FEW070 59.2 39.6 48% 30.05 0.0
01 21:55 Calm 9.00 Mostly Cloudy BKN070 59.2 41.7 53% 30.05 0.0
01 21:35 Calm 9.00 Partly Cloudy SCT070 59 42.1 54% 30.04 0.0
01 21:15 Calm 9.00 A Few Clouds FEW070 59.7 42.4 53% 30.03 0.0
01 20:55 N 3 10.00 Mostly Cloudy BKN065 61.2 42.3 50% 30.02 0.0
Date Time (cdt) Wind (mph) Vis. (mi.) Weather Sky Cond. Air Dwpt Max. Min. Relative Humidity Wind Chill (°F) Heat Index (°F) altimeter (in) sea level (mb) 1 hr 3 hr 6 hr
6 hour
Temperature (ºF) Pressure Precipitation (in)